Time,TemperatureF,DewpointF,PressureIn,WindDirection,WindDirectionDegrees,WindSpeedMPH,WindSpeedGustMPH,Humidity,HourlyPrecipIn,Conditions,Clouds,dailyrainin,SoftwareType,DateUTC
2013-05-20 09:15:00,59.3,59.0,30.11,NE,38,0.0,-999.0,98,-99.99,,,0.00,weatherlink.com 1.10,2013-05-20 13:15:00,
2013-05-20 09:20:00,59.5,59.0,30.11,NE,38,0.0,-999.0,98,-99.99,,,0.00,weatherlink.com 1.10,2013-05-20 13:20:00,
2013-05-20 09:35:00,59.8,59.0,30.11,NE,38,0.0,-999.0,98,-99.99,,,0.00,weatherlink.com 1.10,2013-05-20 13:35:00,
2013-05-20 09:50:00,60.3,60.0,30.12,NE,38,0.0,-999.0,98,-99.99,,,0.00,weatherlink.com 1.10,2013-05-20 13:50:00,
2013-05-20 10:05:00,60.5,60.0,30.11,NE,38,0.0,-999.0,98,-99.99,,,0.00,weatherlink.com 1.10,2013-05-20 14:05:00,
2013-05-20 10:20:00,61.1,61.0,30.11,NE,38,0.0,-999.0,98,-99.99,,,0.00,weatherlink.com 1.10,2013-05-20 14:20:00,
2013-05-20 10:35:00,61.8,61.0,30.11,NE,44,0.0,-999.0,98,-99.99,,,0.00,weatherlink.com 1.10,2013-05-20 14:35:00,
2013-05-20 10:50:00,62.9,62.0,30.10,NE,44,0.0,-999.0,98,-99.99,,,0.00,weatherlink.com 1.10,2013-05-20 14:50:00,
2013-05-20 11:05:00,64.0,64.0,30.09,NE,55,0.0,-999.0,98,-99.99,,,0.00,weatherlink.com 1.10,2013-05-20 15:05:00,
2013-05-20 11:21:00,64.7,64.0,30.08,North,360,0.0,-999.0,96,-99.99,,,0.00,weatherlink.com 1.10,2013-05-20 15:21:00,
2013-05-20 11:36:00,66.9,65.0,30.08,North,5,0.0,-999.0,94,-99.99,,,0.00,weatherlink.com 1.10,2013-05-20 15:36:00,
2013-05-20 11:51:00,68.8,66.0,30.07,North,5,0.0,-999.0,89,-99.99,,,0.00,weatherlink.com 1.10,2013-05-20 15:51:00,
2013-05-20 12:06:00,70.5,66.0,30.06,North,5,0.0,-999.0,86,-99.99,,,0.00,weatherlink.com 1.10,2013-05-20 16:06:00,
2013-05-20 12:21:00,72.7,68.0,30.05,North,5,0.0,-999.0,85,-99.99,,,0.00,weatherlink.com 1.10,2013-05-20 16:21:00,
2013-05-20 12:36:00,73.4,67.0,30.05,NW,319,0.0,-999.0,81,-99.99,,,0.00,weatherlink.com 1.10,2013-05-20 16:36:00,
2013-05-20 12:51:00,74.3,67.0,30.04,NW,319,1.0,-999.0,78,-99.99,,,0.00,weatherlink.com 1.10,2013-05-20 16:51:00,
2013-05-20 13:06:00,75.0,67.0,30.04,NNW,340,0.0,-999.0,77,-99.99,,,0.00,weatherlink.com 1.10,2013-05-20 17:06:00,
2013-05-20 13:22:00,76.0,68.0,30.03,ENE,78,0.0,-999.0,77,-99.99,,,0.00,weatherlink.com 1.10,2013-05-20 17:22:00,
2013-05-20 13:37:00,76.4,68.0,30.03,ENE,78,0.0,-999.0,74,-99.99,,,0.00,weatherlink.com 1.10,2013-05-20 17:37:00,
2013-05-20 13:52:00,77.4,68.0,30.02,NNW,346,0.0,-999.0,72,-99.99,,,0.00,weatherlink.com 1.10,2013-05-20 17:52:00,
2013-05-20 14:07:00,77.8,68.0,30.02,NNW,342,0.0,-999.0,72,-99.99,,,0.00,weatherlink.com 1.10,2013-05-20 18:07:00,
2013-05-20 14:22:00,78.5,69.0,30.01,NE,40,0.0,-999.0,72,-99.99,,,0.00,weatherlink.com 1.10,2013-05-20 18:22:00,
2013-05-20 14:37:00,78.9,68.0,30.01,SE,135,0.0,-999.0,69,-99.99,,,0.00,weatherlink.com 1.10,2013-05-20 18:37:00,
2013-05-20 14:52:00,79.5,69.0,30.01,NW,320,0.0,-999.0,70,-99.99,,,0.00,weatherlink.com 1.10,2013-05-20 18:52:00,
2013-05-20 15:07:00,79.5,69.0,30.01,NW,319,0.0,-999.0,71,-99.99,,,0.00,weatherlink.com 1.10,2013-05-20 19:07:00,
2013-05-20 15:22:00,80.1,70.0,30.00,NW,319,0.0,-999.0,71,-99.99,,,0.00,weatherlink.com 1.10,2013-05-20 19:22:00,
2013-05-20 15:38:00,80.2,69.0,30.00,WSW,249,0.0,-999.0,68,-99.99,,,0.00,weatherlink.com 1.10,2013-05-20 19:38:00,
2013-05-20 15:53:00,79.7,69.0,30.00,WSW,250,0.0,-999.0,69,-99.99,,,0.00,weatherlink.com 1.10,2013-05-20 19:53:00,
2013-05-20 16:08:00,78.5,68.0,29.99,WSW,250,0.0,-999.0,71,-99.99,,,0.00,weatherlink.com 1.10,2013-05-20 20:08:00,
2013-05-20 16:23:00,78.2,68.0,29.98,NE,47,0.0,-999.0,71,-99.99,,,0.00,weatherlink.com 1.10,2013-05-20 20:23:00,
2013-05-20 16:38:00,78.0,68.0,29.97,SE,128,0.0,-999.0,71,-99.99,,,0.00,weatherlink.com 1.10,2013-05-20 20:38:00,
2013-05-20 16:53:00,78.0,68.0,29.97,ESE,115,0.0,-999.0,72,-99.99,,,0.00,weatherlink.com 1.10,2013-05-20 20:53:00,
2013-05-20 17:08:00,78.2,68.0,29.96,East,88,0.0,-999.0,72,-99.99,,,0.00,weatherlink.com 1.10,2013-05-20 21:08:00,
2013-05-20 17:23:00,78.5,69.0,29.96,East,89,0.0,-999.0,72,-99.99,,,0.00,weatherlink.com 1.10,2013-05-20 21:23:00,
2013-05-20 17:38:00,78.0,69.0,29.97,East,99,0.0,-999.0,73,-99.99,,,0.00,weatherlink.com 1.10,2013-05-20 21:38:00,
2013-05-20 17:53:00,77.8,68.0,29.97,ESE,102,0.0,-999.0,72,-99.99,,,0.00,weatherlink.com 1.10,2013-05-20 21:53:00,
2013-05-20 18:08:00,77.5,68.0,29.97,ESE,102,0.0,-999.0,73,-99.99,,,0.00,weatherlink.com 1.10,2013-05-20 22:08:00,
2013-05-20 18:23:00,77.3,68.0,29.97,ESE,102,0.0,-999.0,73,-99.99,,,0.00,weatherlink.com 1.10,2013-05-20 22:23:00,
2013-05-20 18:38:00,76.9,68.0,29.97,ESE,102,0.0,-999.0,74,-99.99,,,0.00,weatherlink.com 1.10,2013-05-20 22:38:00,
2013-05-20 18:54:00,76.1,67.0,29.96,ESE,102,0.0,-999.0,74,-99.99,,,0.00,weatherlink.com 1.10,2013-05-20 22:54:00,
2013-05-20 19:09:00,75.4,67.0,29.96,ESE,102,0.0,-999.0,76,-99.99,,,0.00,weatherlink.com 1.10,2013-05-20 23:09:00,
2013-05-20 19:24:00,74.8,67.0,29.96,ESE,102,0.0,-999.0,77,-99.99,,,0.00,weatherlink.com 1.10,2013-05-20 23:24:00,
2013-05-20 19:39:00,74.4,67.0,29.96,ESE,102,0.0,-999.0,78,-99.99,,,0.00,weatherlink.com 1.10,2013-05-20 23:39:00,
2013-05-20 19:54:00,74.0,68.0,29.96,ESE,102,0.0,-999.0,80,-99.99,,,0.00,weatherlink.com 1.10,2013-05-20 23:54:00,
2013-05-20 20:09:00,73.3,67.0,29.97,ESE,102,0.0,-999.0,81,-99.99,,,0.00,weatherlink.com 1.10,2013-05-21 00:09:00,
2013-05-20 20:24:00,72.5,67.0,29.98,ESE,102,0.0,-999.0,82,-99.99,,,0.00,weatherlink.com 1.10,2013-05-21 00:24:00,
2013-05-20 20:39:00,71.5,67.0,29.98,ESE,102,0.0,-999.0,85,-99.99,,,0.00,weatherlink.com 1.10,2013-05-21 00:39:00,
2013-05-20 20:54:00,70.5,67.0,29.98,ESE,102,0.0,-999.0,87,-99.99,,,0.00,weatherlink.com 1.10,2013-05-21 00:54:00,
2013-05-20 21:09:00,69.4,66.0,29.98,ESE,102,0.0,-999.0,89,-99.99,,,0.00,weatherlink.com 1.10,2013-05-21 01:09:00,
2013-05-20 21:24:00,68.5,66.0,29.98,ESE,102,0.0,-999.0,90,-99.99,,,0.00,weatherlink.com 1.10,2013-05-21 01:24:00,
2013-05-20 21:39:00,68.1,65.0,29.98,ESE,102,0.0,-999.0,91,-99.99,,,0.00,weatherlink.com 1.10,2013-05-21 01:39:00,
2013-05-20 21:55:00,67.8,65.0,29.99,ESE,102,0.0,-999.0,91,-99.99,,,0.00,weatherlink.com 1.10,2013-05-21 01:55:00,
2013-05-20 22:10:00,67.4,65.0,30.00,ESE,102,0.0,-999.0,92,-99.99,,,0.00,weatherlink.com 1.10,2013-05-21 02:10:00,
2013-05-20 22:25:00,66.8,65.0,29.99,ESE,102,0.0,-999.0,92,-99.99,,,0.00,weatherlink.com 1.10,2013-05-21 02:25:00,